sensor_id;sensor_type;location;lat;lon;timestamp;pressure;altitude;pressure_sealevel;temperature;humidity
929;BME280;451;47.988;7.842;2023-02-02T00:04:38;99556.03;;;5.94;96.62
929;BME280;451;47.988;7.842;2023-02-02T00:13:43;99544.94;;;6.03;97.62
929;BME280;451;47.988;7.842;2023-02-02T00:22:46;99500.66;;;5.56;100.00
929;BME280;451;47.988;7.842;2023-02-02T00:31:50;99532.13;;;5.77;100.00
929;BME280;451;47.988;7.842;2023-02-02T00:40:53;99567.31;;;5.95;100.00
929;BME280;451;47.988;7.842;2023-02-02T00:49:58;99549.28;;;5.68;100.00
929;BME280;451;47.988;7.842;2023-02-02T00:59:01;99573.66;;;5.80;100.00
929;BME280;451;47.988;7.842;2023-02-02T01:08:05;99562.38;;;5.79;100.00
929;BME280;451;47.988;7.842;2023-02-02T01:17:09;99540.50;;;5.69;100.00
929;BME280;451;47.988;7.842;2023-02-02T01:26:14;99612.84;;;5.67;100.00
929;BME280;451;47.988;7.842;2023-02-02T01:35:17;99569.72;;;5.74;100.00
929;BME280;451;47.988;7.842;2023-02-02T01:54:05;99556.16;;;5.69;100.00
929;BME280;451;47.988;7.842;2023-02-02T02:03:12;99531.91;;;5.80;100.00
929;BME280;451;47.988;7.842;2023-02-02T02:12:17;99548.25;;;5.82;100.00
929;BME280;451;47.988;7.842;2023-02-02T02:21:46;99557.75;;;5.83;100.00
929;BME280;451;47.988;7.842;2023-02-02T02:41:00;99534.97;;;6.08;100.00
929;BME280;451;47.988;7.842;2023-02-02T02:50:06;99534.94;;;5.97;100.00
929;BME280;451;47.988;7.842;2023-02-02T02:59:18;99534.84;;;5.99;100.00
929;BME280;451;47.988;7.842;2023-02-02T03:08:30;99544.38;;;5.87;100.00
929;BME280;451;47.988;7.842;2023-02-02T03:17:35;99547.06;;;5.98;100.00
929;BME280;451;47.988;7.842;2023-02-02T03:26:38;99544.19;;;6.01;100.00
929;BME280;451;47.988;7.842;2023-02-02T03:35:43;99554.41;;;5.93;100.00
929;BME280;451;47.988;7.842;2023-02-02T03:44:46;99556.56;;;5.99;100.00
929;BME280;451;47.988;7.842;2023-02-02T03:53:51;99513.78;;;5.54;100.00
929;BME280;451;47.988;7.842;2023-02-02T04:02:54;99550.81;;;5.94;100.00
929;BME280;451;47.988;7.842;2023-02-02T04:11:58;99554.72;;;5.89;100.00
929;BME280;451;47.988;7.842;2023-02-02T04:21:13;99542.31;;;6.03;100.00
929;BME280;451;47.988;7.842;2023-02-02T04:30:18;99548.13;;;6.07;100.00
929;BME280;451;47.988;7.842;2023-02-02T04:39:21;99555.91;;;6.31;100.00
929;BME280;451;47.988;7.842;2023-02-02T04:48:25;99564.41;;;6.11;100.00
929;BME280;451;47.988;7.842;2023-02-02T04:57:29;99464.81;;;5.47;100.00
929;BME280;451;47.988;7.842;2023-02-02T05:06:33;99575.63;;;6.35;100.00
929;BME280;451;47.988;7.842;2023-02-02T05:15:39;99570.19;;;6.49;100.00
929;BME280;451;47.988;7.842;2023-02-02T05:24:43;99580.06;;;6.11;100.00
929;BME280;451;47.988;7.842;2023-02-02T05:33:47;99579.59;;;6.17;100.00
929;BME280;451;47.988;7.842;2023-02-02T05:42:51;99581.00;;;6.10;100.00
929;BME280;451;47.988;7.842;2023-02-02T05:51:55;99567.97;;;6.10;100.00
929;BME280;451;47.988;7.842;2023-02-02T06:01:01;99569.16;;;6.17;100.00
929;BME280;451;47.988;7.842;2023-02-02T06:10:04;99580.75;;;6.01;100.00
929;BME280;451;47.988;7.842;2023-02-02T06:19:09;99552.72;;;5.92;100.00
929;BME280;451;47.988;7.842;2023-02-02T06:28:12;99577.34;;;6.12;100.00
929;BME280;451;47.988;7.842;2023-02-02T06:37:16;99597.06;;;6.27;100.00
929;BME280;451;47.988;7.842;2023-02-02T06:46:19;99469.22;;;5.22;100.00
929;BME280;451;47.988;7.842;2023-02-02T06:55:24;99595.25;;;6.05;100.00
929;BME280;451;47.988;7.842;2023-02-02T07:04:27;99619.16;;;6.23;100.00
929;BME280;451;47.988;7.842;2023-02-02T07:13:31;99613.28;;;6.08;100.00
929;BME280;451;47.988;7.842;2023-02-02T07:22:37;99593.81;;;6.13;100.00
929;BME280;451;47.988;7.842;2023-02-02T07:31:41;99649.78;;;6.32;100.00
929;BME280;451;47.988;7.842;2023-02-02T07:40:44;99662.97;;;6.31;100.00
929;BME280;451;47.988;7.842;2023-02-02T07:49:49;99657.78;;;6.42;100.00
929;BME280;451;47.988;7.842;2023-02-02T07:58:53;99633.69;;;6.15;100.00
929;BME280;451;47.988;7.842;2023-02-02T08:08:01;99627.50;;;6.39;100.00
929;BME280;451;47.988;7.842;2023-02-02T08:17:04;99626.56;;;6.52;100.00
929;BME280;451;47.988;7.842;2023-02-02T08:26:11;99648.25;;;6.87;100.00
929;BME280;451;47.988;7.842;2023-02-02T08:35:14;99620.56;;;6.84;100.00
929;BME280;451;47.988;7.842;2023-02-02T08:44:19;99610.22;;;6.83;100.00
929;BME280;451;47.988;7.842;2023-02-02T08:53:22;99641.13;;;7.11;99.18
929;BME280;451;47.988;7.842;2023-02-02T09:02:26;99624.72;;;6.98;100.00
929;BME280;451;47.988;7.842;2023-02-02T09:11:29;99672.00;;;6.95;100.00
929;BME280;451;47.988;7.842;2023-02-02T09:20:34;99719.22;;;7.49;99.27
929;BME280;451;47.988;7.842;2023-02-02T09:29:37;99472.72;;;5.80;99.56
929;BME280;451;47.988;7.842;2023-02-02T09:38:42;99729.19;;;7.33;100.00
929;BME280;451;47.988;7.842;2023-02-02T09:47:54;99595.66;;;6.23;100.00
929;BME280;451;47.988;7.842;2023-02-02T09:57:01;99722.22;;;6.87;100.00
929;BME280;451;47.988;7.842;2023-02-02T10:06:19;99747.88;;;7.40;100.00
929;BME280;451;47.988;7.842;2023-02-02T10:15:33;99797.28;;;7.20;100.00
929;BME280;451;47.988;7.842;2023-02-02T10:24:39;99761.31;;;7.24;100.00
929;BME280;451;47.988;7.842;2023-02-02T10:33:50;99761.56;;;7.43;100.00
929;BME280;451;47.988;7.842;2023-02-02T10:43:19;99738.13;;;7.42;100.00
929;BME280;451;47.988;7.842;2023-02-02T10:52:50;99721.81;;;7.27;100.00
929;BME280;451;47.988;7.842;2023-02-02T11:01:54;99774.78;;;7.07;100.00
929;BME280;451;47.988;7.842;2023-02-02T11:11:09;99725.00;;;7.08;100.00
929;BME280;451;47.988;7.842;2023-02-02T11:20:23;99746.56;;;7.45;100.00
929;BME280;451;47.988;7.842;2023-02-02T11:29:29;99693.75;;;7.40;100.00
929;BME280;451;47.988;7.842;2023-02-02T11:38:34;99699.66;;;7.76;100.00
929;BME280;451;47.988;7.842;2023-02-02T11:47:38;99711.88;;;7.97;97.83
929;BME280;451;47.988;7.842;2023-02-02T11:56:47;99719.88;;;7.85;96.80
929;BME280;451;47.988;7.842;2023-02-02T12:05:53;99719.66;;;7.77;97.29
929;BME280;451;47.988;7.842;2023-02-02T12:15:03;99728.44;;;7.76;96.84
929;BME280;451;47.988;7.842;2023-02-02T12:24:28;99722.03;;;7.80;96.28
929;BME280;451;47.988;7.842;2023-02-02T12:33:37;99727.16;;;7.70;96.01
929;BME280;451;47.988;7.842;2023-02-02T12:42:55;99735.81;;;7.82;96.65
929;BME280;451;47.988;7.842;2023-02-02T12:52:14;99720.59;;;7.76;97.30
929;BME280;451;47.988;7.842;2023-02-02T13:01:38;99708.03;;;7.36;100.00
929;BME280;451;47.988;7.842;2023-02-02T13:10:48;99709.22;;;7.54;100.00
929;BME280;451;47.988;7.842;2023-02-02T13:19:57;99702.81;;;7.47;100.00
929;BME280;451;47.988;7.842;2023-02-02T13:29:06;99702.41;;;7.74;100.00
929;BME280;451;47.988;7.842;2023-02-02T13:38:15;99710.16;;;7.64;100.00
929;BME280;451;47.988;7.842;2023-02-02T13:47:23;99727.25;;;7.68;99.09
929;BME280;451;47.988;7.842;2023-02-02T13:56:38;99554.25;;;6.41;100.00
929;BME280;451;47.988;7.842;2023-02-02T14:06:01;99725.38;;;7.59;100.00
929;BME280;451;47.988;7.842;2023-02-02T14:15:07;99718.94;;;7.08;100.00
929;BME280;451;47.988;7.842;2023-02-02T14:24:39;99736.41;;;6.96;100.00
929;BME280;451;47.988;7.842;2023-02-02T14:33:44;99727.41;;;7.22;100.00
929;BME280;451;47.988;7.842;2023-02-02T14:42:55;99742.50;;;7.63;100.00
929;BME280;451;47.988;7.842;2023-02-02T14:52:21;99768.19;;;7.69;100.00
929;BME280;451;47.988;7.842;2023-02-02T15:01:27;99750.44;;;7.95;100.00
929;BME280;451;47.988;7.842;2023-02-02T15:11:06;99774.13;;;7.83;100.00
929;BME280;451;47.988;7.842;2023-02-02T15:20:28;99770.56;;;7.84;100.00
929;BME280;451;47.988;7.842;2023-02-02T15:29:38;99784.94;;;8.12;100.00
929;BME280;451;47.988;7.842;2023-02-02T15:38:44;99780.34;;;7.70;100.00
929;BME280;451;47.988;7.842;2023-02-02T15:47:50;99696.94;;;6.88;100.00
929;BME280;451;47.988;7.842;2023-02-02T15:56:54;99812.00;;;7.67;100.00
929;BME280;451;47.988;7.842;2023-02-02T16:05:59;99806.28;;;7.74;98.76
929;BME280;451;47.988;7.842;2023-02-02T16:15:02;99786.75;;;7.66;98.66
929;BME280;451;47.988;7.842;2023-02-02T16:24:11;99824.00;;;7.92;96.41
929;BME280;451;47.988;7.842;2023-02-02T16:33:35;99834.34;;;7.94;96.41
929;BME280;451;47.988;7.842;2023-02-02T16:42:39;99822.94;;;7.84;96.30
929;BME280;451;47.988;7.842;2023-02-02T16:51:42;99815.66;;;7.98;94.44
929;BME280;451;47.988;7.842;2023-02-02T17:01:00;99867.19;;;7.98;93.69
929;BME280;451;47.988;7.842;2023-02-02T17:10:21;99849.09;;;7.84;94.86
929;BME280;451;47.988;7.842;2023-02-02T17:19:28;99896.00;;;8.09;92.77
929;BME280;451;47.988;7.842;2023-02-02T17:28:32;99921.00;;;8.02;92.29
929;BME280;451;47.988;7.842;2023-02-02T17:37:36;99930.75;;;8.00;94.43
929;BME280;451;47.988;7.842;2023-02-02T17:46:39;99789.72;;;6.94;100.00
929;BME280;451;47.988;7.842;2023-02-02T17:55:45;99943.31;;;7.61;100.00
929;BME280;451;47.988;7.842;2023-02-02T18:04:48;99944.22;;;7.49;100.00
929;BME280;451;47.988;7.842;2023-02-02T18:13:53;99871.06;;;7.13;100.00
929;BME280;451;47.988;7.842;2023-02-02T18:22:56;99866.66;;;7.02;100.00
929;BME280;451;47.988;7.842;2023-02-02T18:32:00;99912.91;;;7.37;100.00
929;BME280;451;47.988;7.842;2023-02-02T18:41:03;100004.34;;;7.38;100.00
929;BME280;451;47.988;7.842;2023-02-02T18:50:09;99971.78;;;7.42;100.00
929;BME280;451;47.988;7.842;2023-02-02T18:59:12;99953.25;;;7.56;100.00
929;BME280;451;47.988;7.842;2023-02-02T19:08:17;99956.41;;;7.61;100.00
929;BME280;451;47.988;7.842;2023-02-02T19:17:21;99937.22;;;7.26;100.00
929;BME280;451;47.988;7.842;2023-02-02T19:26:29;99976.13;;;7.31;100.00
929;BME280;451;47.988;7.842;2023-02-02T19:35:33;99875.41;;;6.66;100.00
929;BME280;451;47.988;7.842;2023-02-02T19:44:41;100001.22;;;7.33;100.00
929;BME280;451;47.988;7.842;2023-02-02T19:53:44;99960.97;;;7.47;100.00
929;BME280;451;47.988;7.842;2023-02-02T20:02:59;100018.59;;;7.34;100.00
929;BME280;451;47.988;7.842;2023-02-02T20:12:15;100013.13;;;7.37;100.00
929;BME280;451;47.988;7.842;2023-02-02T20:21:26;99884.56;;;6.48;100.00
929;BME280;451;47.988;7.842;2023-02-02T20:30:34;99995.31;;;7.18;100.00
929;BME280;451;47.988;7.842;2023-02-02T20:39:40;99977.84;;;6.95;100.00
929;BME280;451;47.988;7.842;2023-02-02T20:48:43;99973.53;;;6.94;100.00
929;BME280;451;47.988;7.842;2023-02-02T20:57:49;99967.69;;;7.03;100.00
929;BME280;451;47.988;7.842;2023-02-02T21:06:52;99985.03;;;7.04;100.00
929;BME280;451;47.988;7.842;2023-02-02T21:15:57;99992.50;;;7.21;100.00
929;BME280;451;47.988;7.842;2023-02-02T21:25:00;99960.78;;;7.02;100.00
929;BME280;451;47.988;7.842;2023-02-02T21:34:05;99985.34;;;7.00;100.00
929;BME280;451;47.988;7.842;2023-02-02T21:43:13;99965.84;;;6.93;100.00
929;BME280;451;47.988;7.842;2023-02-02T21:52:18;99994.31;;;7.32;100.00
929;BME280;451;47.988;7.842;2023-02-02T22:01:27;99992.84;;;7.17;100.00
929;BME280;451;47.988;7.842;2023-02-02T22:10:37;100006.13;;;7.14;100.00
929;BME280;451;47.988;7.842;2023-02-02T22:19:42;99986.31;;;6.99;100.00
929;BME280;451;47.988;7.842;2023-02-02T22:28:47;100026.00;;;7.16;100.00
929;BME280;451;47.988;7.842;2023-02-02T22:37:50;100037.09;;;7.07;100.00
929;BME280;451;47.988;7.842;2023-02-02T22:46:54;100034.94;;;7.25;98.28
929;BME280;451;47.988;7.842;2023-02-02T22:55:57;100030.28;;;7.41;97.35
929;BME280;451;47.988;7.842;2023-02-02T23:05:02;100002.44;;;6.93;100.00
929;BME280;451;47.988;7.842;2023-02-02T23:14:05;100002.00;;;6.99;100.00
929;BME280;451;47.988;7.842;2023-02-02T23:23:09;100028.06;;;7.24;96.94
929;BME280;451;47.988;7.842;2023-02-02T23:32:12;100026.19;;;7.13;95.39
929;BME280;451;47.988;7.842;2023-02-02T23:41:18;100032.75;;;7.19;97.61
929;BME280;451;47.988;7.842;2023-02-02T23:50:21;99925.13;;;6.41;96.36
929;BME280;451;47.988;7.842;2023-02-02T23:59:26;99950.03;;;6.58;95.88
